createdAt,value
2023-10-06T00:02:08.989Z,8.45
2023-10-06T00:04:40.133Z,12.77
2023-10-06T00:07:09.432Z,6.72
2023-10-06T00:09:36.590Z,9.35
2023-10-06T00:12:06.400Z,8.07
2023-10-06T00:14:42.046Z,8.13
2023-10-06T00:17:20.193Z,9.45
2023-10-06T00:19:51.220Z,18.33
2023-10-06T00:22:17.898Z,20.00
2023-10-06T00:24:51.208Z,15.30
2023-10-06T00:27:30.997Z,8.88
2023-10-06T00:29:58.075Z,7.57
2023-10-06T00:32:28.339Z,9.30
2023-10-06T00:35:12.306Z,9.82
2023-10-06T00:37:41.076Z,8.35
2023-10-06T00:40:20.147Z,8.48
2023-10-06T00:42:57.605Z,8.40
2023-10-06T00:45:27.162Z,9.20
2023-10-06T00:47:54.534Z,8.40
2023-10-06T00:50:25.694Z,7.97
2023-10-06T00:55:20.465Z,8.77
2023-10-06T00:57:54.075Z,8.30
2023-10-06T01:00:21.935Z,9.32
2023-10-06T01:02:49.572Z,11.50
2023-10-06T01:05:18.041Z,9.90
2023-10-06T01:07:47.952Z,11.15
2023-10-06T01:10:28.779Z,11.67
2023-10-06T01:15:29.921Z,9.88
2023-10-06T01:17:58.885Z,9.57
2023-10-06T01:20:37.059Z,7.47
2023-10-06T01:23:11.328Z,10.70
2023-10-06T01:25:39.011Z,9.88
2023-10-06T01:28:06.698Z,7.93
2023-10-06T01:30:33.360Z,10.63
2023-10-06T01:33:00.108Z,9.90
2023-10-06T01:35:27.832Z,7.72
2023-10-06T01:38:06.639Z,11.25
2023-10-06T01:40:33.645Z,10.10
2023-10-06T01:43:00.392Z,10.23
2023-10-06T01:45:29.781Z,10.77
2023-10-06T01:48:05.472Z,7.85
2023-10-06T01:50:32.674Z,11.20
2023-10-06T01:52:59.973Z,8.95
2023-10-06T01:55:26.630Z,10.52
2023-10-06T01:57:53.426Z,9.63
2023-10-06T02:00:32.705Z,9.50
2023-10-06T02:02:59.860Z,9.45
2023-10-06T02:05:26.699Z,9.90
2023-10-06T02:07:54.035Z,11.85
2023-10-06T02:10:20.635Z,9.77
2023-10-06T02:12:47.246Z,8.57
2023-10-06T02:15:13.876Z,10.25
2023-10-06T02:17:42.043Z,11.52
2023-10-06T02:20:36.421Z,12.52
2023-10-06T02:23:04.461Z,8.13
2023-10-06T02:25:32.679Z,10.90
2023-10-06T02:28:05.057Z,7.68
2023-10-06T02:30:35.130Z,11.35
2023-10-06T02:33:02.107Z,9.32
2023-10-06T02:35:28.948Z,12.32
2023-10-06T02:37:59.042Z,12.38
2023-10-06T02:40:32.681Z,13.25
2023-10-06T02:43:01.300Z,10.23
2023-10-06T02:45:38.319Z,9.15
2023-10-06T02:48:15.334Z,8.07
2023-10-06T02:50:45.749Z,10.02
2023-10-06T02:53:21.307Z,9.95
2023-10-06T02:55:56.630Z,10.68
2023-10-06T02:58:31.867Z,12.45
2023-10-06T03:00:59.181Z,7.35
2023-10-06T03:03:30.423Z,6.70
2023-10-06T03:05:57.649Z,8.63
2023-10-06T03:08:33.431Z,11.40
2023-10-06T03:11:01.436Z,11.00
2023-10-06T03:13:33.692Z,9.93
2023-10-06T03:16:01.071Z,10.38
2023-10-06T03:18:29.509Z,14.10
2023-10-06T03:21:06.250Z,9.68
2023-10-06T03:23:39.284Z,9.70
2023-10-06T03:26:13.536Z,16.60
2023-10-06T03:28:44.300Z,12.45
2023-10-06T03:31:28.089Z,9.55
2023-10-06T03:33:55.921Z,12.95
2023-10-06T03:36:38.621Z,12.18
2023-10-06T03:39:11.586Z,10.93
2023-10-06T03:41:42.134Z,10.10
2023-10-06T03:44:11.261Z,10.15
2023-10-06T03:46:39.038Z,11.32
2023-10-06T03:49:06.416Z,10.13
2023-10-06T03:51:38.920Z,10.10
2023-10-06T03:54:06.203Z,13.20
2023-10-06T03:56:33.413Z,11.10
2023-10-06T03:59:03.836Z,15.00
2023-10-06T04:01:32.893Z,10.88
2023-10-06T04:03:59.831Z,13.77
2023-10-06T04:06:27.635Z,13.68
2023-10-06T04:08:54.842Z,9.73
2023-10-06T04:11:21.546Z,14.23
2023-10-06T04:13:48.741Z,12.52
2023-10-06T04:16:15.667Z,12.30
2023-10-06T04:18:48.524Z,11.23
2023-10-06T04:21:15.548Z,12.30
2023-10-06T04:23:45.081Z,11.40
2023-10-06T04:26:15.206Z,11.88
2023-10-06T04:28:43.568Z,11.40
2023-10-06T04:31:10.245Z,10.65
2023-10-06T04:33:38.924Z,12.90
2023-10-06T04:36:08.753Z,10.57
2023-10-06T04:38:39.084Z,9.77
2023-10-06T04:41:10.987Z,14.97
2023-10-06T04:43:45.164Z,13.55
2023-10-06T04:46:12.543Z,13.90
2023-10-06T04:48:39.294Z,17.60
2023-10-06T04:51:06.866Z,19.40
2023-10-06T04:53:36.865Z,12.70
2023-10-06T04:56:05.109Z,12.67
2023-10-06T04:58:32.689Z,14.15
2023-10-06T05:01:03.459Z,15.73
2023-10-06T05:03:43.923Z,17.80
2023-10-06T05:06:14.137Z,17.73
2023-10-06T05:08:41.858Z,13.87
2023-10-06T05:11:11.769Z,12.55
2023-10-06T05:13:39.298Z,14.95
2023-10-06T05:16:05.967Z,11.50
2023-10-06T05:18:34.220Z,12.70
2023-10-06T05:21:00.868Z,11.05
2023-10-06T05:23:27.864Z,17.08
2023-10-06T05:25:57.462Z,15.73
2023-10-06T05:28:24.160Z,14.00
2023-10-06T05:30:51.929Z,23.95
2023-10-06T05:33:18.804Z,20.63
2023-10-06T05:35:46.604Z,14.65
2023-10-06T05:38:16.086Z,18.27
2023-10-06T05:40:47.541Z,17.67
2023-10-06T05:43:16.984Z,19.10
2023-10-06T05:45:53.803Z,18.83
2023-10-06T05:48:26.177Z,17.70
2023-10-06T05:50:57.586Z,13.95
2023-10-06T05:53:24.377Z,11.27
2023-10-06T05:55:53.414Z,15.07
2023-10-06T05:58:24.710Z,16.13
2023-10-06T06:00:57.638Z,18.83
2023-10-06T06:03:25.232Z,14.52
2023-10-06T06:05:58.371Z,14.30
2023-10-06T06:08:25.221Z,15.00
2023-10-06T06:10:51.903Z,13.57
2023-10-06T06:13:20.208Z,15.82
2023-10-06T06:15:52.378Z,10.80
2023-10-06T06:18:19.038Z,14.85
2023-10-06T06:20:46.967Z,18.15
2023-10-06T06:23:14.715Z,18.70
2023-10-06T06:25:43.196Z,14.88
2023-10-06T06:28:13.234Z,15.95
2023-10-06T06:30:41.193Z,15.38
2023-10-06T06:33:09.777Z,15.85
2023-10-06T06:35:37.354Z,17.95
2023-10-06T06:38:05.980Z,13.10
2023-10-06T06:40:34.364Z,20.20
2023-10-06T06:43:01.365Z,16.13
2023-10-06T06:45:29.759Z,14.93
2023-10-06T06:47:56.770Z,14.68
2023-10-06T06:50:23.653Z,21.33
2023-10-06T06:52:57.345Z,19.50
2023-10-06T06:55:24.361Z,15.23
2023-10-06T06:57:56.788Z,16.27
2023-10-06T07:00:24.597Z,18.85
2023-10-06T07:02:57.248Z,21.90
2023-10-06T07:05:24.364Z,19.38
2023-10-06T07:07:52.413Z,15.52
2023-10-06T07:10:26.402Z,12.75
2023-10-06T07:12:53.624Z,18.90
2023-10-06T07:15:21.993Z,16.25
2023-10-06T07:17:55.049Z,15.30
2023-10-06T07:20:25.266Z,12.88
2023-10-06T07:22:55.329Z,14.17
2023-10-06T07:25:27.268Z,18.20
2023-10-06T07:27:56.480Z,13.30
2023-10-06T07:30:25.032Z,13.32
2023-10-06T07:32:52.492Z,12.90
2023-10-06T07:35:20.543Z,16.02
2023-10-06T07:37:49.900Z,15.70
2023-10-06T07:40:22.303Z,13.88
2023-10-06T07:42:51.589Z,17.48
2023-10-06T07:45:19.754Z,19.23
2023-10-06T07:47:47.162Z,21.77
2023-10-06T07:50:16.754Z,15.30
2023-10-06T07:52:44.519Z,16.73
2023-10-06T07:55:12.927Z,19.17
2023-10-06T07:57:43.546Z,20.05
2023-10-06T08:00:13.044Z,14.07
2023-10-06T08:02:40.719Z,17.95
2023-10-06T08:05:14.153Z,22.85
2023-10-06T08:07:43.619Z,17.10
2023-10-06T08:10:14.788Z,19.45
2023-10-06T08:12:50.823Z,15.82
2023-10-06T08:15:18.567Z,18.85
2023-10-06T08:17:57.305Z,17.10
2023-10-06T08:20:26.609Z,23.95
2023-10-06T08:22:54.461Z,15.80
2023-10-06T08:25:21.469Z,19.38
2023-10-06T08:27:50.774Z,22.65
2023-10-06T08:30:19.829Z,16.40
2023-10-06T08:32:47.846Z,17.30
2023-10-06T08:35:14.702Z,18.02
2023-10-06T08:37:49.183Z,17.92
2023-10-06T08:40:17.782Z,14.27
2023-10-06T08:42:57.190Z,15.40
2023-10-06T08:45:26.392Z,15.75
2023-10-06T08:48:03.467Z,17.27
2023-10-06T08:50:33.110Z,26.17
2023-10-06T08:53:02.448Z,18.73
2023-10-06T08:55:29.976Z,21.90
2023-10-06T08:58:03.175Z,19.08
2023-10-06T09:00:35.367Z,17.25
2023-10-06T09:03:08.624Z,17.98
2023-10-06T09:05:40.392Z,18.25
2023-10-06T09:08:09.991Z,14.20
2023-10-06T09:10:38.904Z,16.00
2023-10-06T09:13:07.321Z,23.13
2023-10-06T09:15:36.826Z,19.40
2023-10-06T09:18:20.624Z,17.15
2023-10-06T09:20:51.252Z,25.63
2023-10-06T09:23:35.210Z,17.42
2023-10-06T09:26:03.194Z,14.38
2023-10-06T09:28:30.111Z,15.20
2023-10-06T09:30:58.974Z,18.08
2023-10-06T09:33:28.051Z,15.57
2023-10-06T09:36:08.292Z,22.58
2023-10-06T09:38:42.083Z,14.98
2023-10-06T09:41:10.433Z,19.55
2023-10-06T09:43:39.736Z,17.02
2023-10-06T09:46:17.481Z,18.40
2023-10-06T09:48:44.488Z,15.27
2023-10-06T09:51:13.675Z,17.00
2023-10-06T09:53:44.875Z,21.63
2023-10-06T09:56:13.736Z,20.42
2023-10-06T09:58:42.110Z,14.93
2023-10-06T10:01:11.533Z,15.07
2023-10-06T10:03:39.551Z,14.55
2023-10-06T10:06:06.698Z,14.90
2023-10-06T10:08:34.559Z,16.13
2023-10-06T10:11:15.178Z,24.90
2023-10-06T10:14:09.477Z,14.80
2023-10-06T10:16:54.467Z,13.70
2023-10-06T10:19:23.536Z,10.20
2023-10-06T10:21:50.692Z,14.48
2023-10-06T10:26:55.548Z,14.15
2023-10-06T10:29:25.316Z,15.70
2023-10-06T10:32:03.238Z,16.70
2023-10-06T10:34:35.153Z,17.27
2023-10-06T10:37:06.893Z,13.70
2023-10-06T10:39:50.010Z,20.92
2023-10-06T10:42:37.076Z,16.55
2023-10-06T10:45:32.091Z,18.13
2023-10-06T10:48:00.161Z,15.27
2023-10-06T10:51:01.166Z,17.17
2023-10-06T10:53:45.078Z,17.20
2023-10-06T10:56:20.547Z,16.08
2023-10-06T10:58:56.521Z,16.25
2023-10-06T11:01:34.313Z,15.63
2023-10-06T11:04:22.387Z,17.23
2023-10-06T11:06:50.853Z,19.48
2023-10-06T11:09:37.891Z,15.35
2023-10-06T11:14:43.740Z,13.45
2023-10-06T11:17:13.037Z,16.85
2023-10-06T11:19:41.110Z,17.48
2023-10-06T11:22:14.721Z,14.23
2023-10-06T11:24:42.491Z,13.75
2023-10-06T11:27:17.783Z,16.08
2023-10-06T11:29:48.096Z,15.32
2023-10-06T11:32:15.867Z,17.25
2023-10-06T11:34:46.777Z,17.05
2023-10-06T11:37:15.672Z,18.02
2023-10-06T11:39:42.374Z,14.10
2023-10-06T11:42:30.942Z,13.77
2023-10-06T11:45:00.672Z,13.23
2023-10-06T11:47:27.313Z,16.52
2023-10-06T11:49:58.219Z,13.40
2023-10-06T11:52:25.713Z,10.88
2023-10-06T11:54:52.812Z,13.02
2023-10-06T11:57:22.887Z,14.73
2023-10-06T11:59:50.112Z,14.60
2023-10-06T12:02:16.838Z,12.15
2023-10-06T12:04:44.285Z,13.07
2023-10-06T12:07:26.445Z,12.65
2023-10-06T12:10:03.224Z,11.10
2023-10-06T12:12:30.227Z,11.93
2023-10-06T12:14:57.929Z,13.35
2023-10-06T12:17:28.226Z,16.10
2023-10-06T12:19:55.384Z,13.27
2023-10-06T12:22:34.345Z,11.38
2023-10-06T12:25:05.524Z,11.90
2023-10-06T12:27:32.306Z,11.60
2023-10-06T12:30:03.664Z,16.10
2023-10-06T12:32:31.838Z,14.85
2023-10-06T12:35:00.966Z,15.68
2023-10-06T12:37:27.721Z,16.63
2023-10-06T12:39:54.559Z,13.38
2023-10-06T12:42:21.194Z,16.30
2023-10-06T12:44:47.834Z,13.73
2023-10-06T12:47:14.633Z,10.05
2023-10-06T12:49:45.020Z,12.00
2023-10-06T12:52:12.052Z,12.93
2023-10-06T12:54:38.988Z,8.20
2023-10-06T12:57:05.810Z,16.85
2023-10-06T12:59:33.809Z,13.43
2023-10-06T13:02:04.818Z,13.27
2023-10-06T13:07:00.355Z,12.00
2023-10-06T13:09:28.531Z,11.07
2023-10-06T13:11:55.270Z,14.90
2023-10-06T13:14:22.018Z,14.00
2023-10-06T13:16:49.602Z,12.52
2023-10-06T13:19:16.252Z,12.63
2023-10-06T13:21:45.829Z,11.20
2023-10-06T13:24:14.153Z,11.82
2023-10-06T13:29:29.955Z,15.95
2023-10-06T13:31:56.711Z,13.40
2023-10-06T13:34:24.150Z,14.18
2023-10-06T13:36:50.828Z,11.65
2023-10-06T13:39:17.795Z,10.23
2023-10-06T13:41:44.413Z,8.88
2023-10-06T13:44:11.591Z,10.45
2023-10-06T13:46:38.677Z,10.52
2023-10-06T13:49:05.554Z,12.00
2023-10-06T13:51:33.946Z,13.55
2023-10-06T13:54:04.157Z,10.98
2023-10-06T13:56:34.883Z,10.70
2023-10-06T13:59:02.838Z,12.52
2023-10-06T14:01:29.471Z,10.60
2023-10-06T14:03:56.269Z,10.02
2023-10-06T14:06:22.931Z,8.98
2023-10-06T14:08:49.498Z,12.25
2023-10-06T14:11:16.253Z,11.27
2023-10-06T14:13:45.461Z,11.52
2023-10-06T14:16:12.101Z,12.88
2023-10-06T14:18:42.035Z,12.35
2023-10-06T14:21:11.064Z,12.93
2023-10-06T14:23:44.455Z,11.93
2023-10-06T14:26:11.717Z,13.85
2023-10-06T14:28:38.679Z,12.48
2023-10-06T14:31:17.297Z,14.35
2023-10-06T14:33:49.108Z,12.73
2023-10-06T14:36:15.867Z,13.27
2023-10-06T14:38:42.754Z,12.93
2023-10-06T14:41:20.896Z,10.77
2023-10-06T14:44:10.800Z,11.30
2023-10-06T14:46:39.497Z,11.73
2023-10-06T14:49:14.126Z,10.10
2023-10-06T14:51:42.698Z,15.77
2023-10-06T14:54:11.857Z,11.60
2023-10-06T14:56:39.583Z,10.75
2023-10-06T14:59:09.592Z,9.73
2023-10-06T15:01:37.397Z,11.43
2023-10-06T15:04:06.080Z,7.32
2023-10-06T15:06:35.782Z,9.35
2023-10-06T15:09:02.421Z,11.88
2023-10-06T15:11:31.798Z,14.15
2023-10-06T15:13:58.903Z,12.82
2023-10-06T15:16:25.688Z,10.60
2023-10-06T15:18:52.363Z,14.23
2023-10-06T15:21:24.468Z,9.20
2023-10-06T15:23:54.579Z,12.20
2023-10-06T15:26:24.557Z,9.70
2023-10-06T15:28:51.325Z,8.45
2023-10-06T15:31:18.085Z,7.22
2023-10-06T15:33:45.140Z,9.55
2023-10-06T15:36:15.557Z,10.73
2023-10-06T15:38:43.678Z,6.93
2023-10-06T15:41:11.755Z,6.03
2023-10-06T15:43:39.813Z,12.75
2023-10-06T15:46:10.006Z,10.07
2023-10-06T15:48:39.402Z,10.45
2023-10-06T15:51:08.962Z,7.55
2023-10-06T15:53:37.428Z,7.93
2023-10-06T15:56:10.107Z,8.35
2023-10-06T15:58:39.543Z,11.85
2023-10-06T16:01:12.697Z,8.70
2023-10-06T16:03:42.068Z,9.82
2023-10-06T16:06:10.712Z,9.93
2023-10-06T16:08:39.302Z,8.48
2023-10-06T16:11:08.526Z,8.40
2023-10-06T16:13:48.380Z,10.35
2023-10-06T16:16:20.837Z,8.40
2023-10-06T16:18:49.548Z,11.00
2023-10-06T16:21:17.832Z,9.32
2023-10-06T16:23:47.647Z,12.93
2023-10-06T16:26:14.537Z,12.73
2023-10-06T16:28:41.644Z,10.20
2023-10-06T16:31:09.379Z,11.48
2023-10-06T16:33:42.337Z,12.57
2023-10-06T16:36:15.434Z,13.40
2023-10-06T16:38:42.326Z,11.38
2023-10-06T16:41:12.411Z,14.48
2023-10-06T16:43:39.237Z,14.48
2023-10-06T16:46:07.585Z,10.90
2023-10-06T16:48:36.225Z,9.98
2023-10-06T16:51:06.099Z,13.30
2023-10-06T16:53:32.725Z,11.00
2023-10-06T16:56:00.228Z,8.90
2023-10-06T16:58:27.538Z,7.57
2023-10-06T17:00:58.123Z,6.68
2023-10-06T17:03:27.944Z,8.52
2023-10-06T17:05:56.020Z,13.13
2023-10-06T17:08:22.785Z,9.80
2023-10-06T17:10:49.436Z,11.27
2023-10-06T17:13:18.803Z,9.68
2023-10-06T17:15:46.134Z,15.05
2023-10-06T17:18:12.979Z,12.20
2023-10-06T17:20:40.044Z,9.65
2023-10-06T17:23:06.840Z,9.98
2023-10-06T17:25:33.974Z,13.63
2023-10-06T17:28:00.543Z,9.95
2023-10-06T17:30:27.265Z,13.23
2023-10-06T17:32:55.804Z,7.95
2023-10-06T17:35:22.668Z,11.60
2023-10-06T17:37:50.689Z,8.90
2023-10-06T17:40:17.455Z,13.43
2023-10-06T17:42:54.575Z,11.15
2023-10-06T17:45:25.781Z,11.90
2023-10-06T17:47:55.910Z,11.98
2023-10-06T17:50:23.818Z,12.48
2023-10-06T17:52:50.479Z,9.38
2023-10-06T17:55:17.180Z,15.43
2023-10-06T17:57:43.911Z,14.35
2023-10-06T18:00:12.141Z,12.02
2023-10-06T18:02:39.838Z,13.02
2023-10-06T18:05:10.455Z,12.38
2023-10-06T18:07:37.464Z,16.88
2023-10-06T18:10:09.414Z,12.30
2023-10-06T18:12:37.842Z,11.90
2023-10-06T18:15:07.258Z,11.48
2023-10-06T18:17:36.572Z,10.40
2023-10-06T18:20:04.575Z,10.40
2023-10-06T18:22:31.404Z,12.00
2023-10-06T18:24:58.096Z,10.65
2023-10-06T18:27:24.807Z,11.55
2023-10-06T18:29:51.567Z,10.80
2023-10-06T18:32:18.333Z,14.02
2023-10-06T18:34:45.075Z,8.75
2023-10-06T18:37:12.654Z,11.68
2023-10-06T18:39:39.964Z,15.57
2023-10-06T18:42:08.312Z,11.65
2023-10-06T18:44:34.953Z,15.30
2023-10-06T18:47:01.593Z,14.80
2023-10-06T18:49:28.653Z,12.60
2023-10-06T18:51:55.331Z,17.23
2023-10-06T18:54:24.109Z,13.10
2023-10-06T18:56:50.757Z,14.73
2023-10-06T18:59:17.516Z,13.00
2023-10-06T19:01:45.697Z,12.50
2023-10-06T19:04:12.466Z,15.77
2023-10-06T19:06:41.527Z,12.02
2023-10-06T19:09:11.438Z,18.40
2023-10-06T19:11:38.634Z,12.47
2023-10-06T19:14:05.802Z,12.45
2023-10-06T19:16:32.547Z,15.68
2023-10-06T19:18:59.449Z,18.83
2023-10-06T19:21:26.073Z,21.48
2023-10-06T19:23:52.787Z,16.25
2023-10-06T19:26:23.577Z,16.65
2023-10-06T19:28:50.522Z,18.65
2023-10-06T19:31:17.894Z,15.52
2023-10-06T19:33:51.950Z,14.52
2023-10-06T19:36:20.511Z,16.30
2023-10-06T19:38:48.357Z,15.52
2023-10-06T19:41:19.202Z,20.13
2023-10-06T19:43:46.397Z,13.13
2023-10-06T19:46:15.064Z,14.57
2023-10-06T19:48:43.581Z,17.17
2023-10-06T19:51:11.448Z,12.93
2023-10-06T19:53:38.447Z,14.70
2023-10-06T19:56:05.945Z,13.90
2023-10-06T19:58:33.516Z,17.48
2023-10-06T20:01:00.679Z,14.48
2023-10-06T20:03:27.721Z,16.38
2023-10-06T20:05:56.787Z,15.68
2023-10-06T20:08:23.707Z,16.92
2023-10-06T20:10:54.600Z,16.05
2023-10-06T20:15:49.104Z,17.67
2023-10-06T20:18:17.477Z,14.10
2023-10-06T20:20:44.580Z,13.43
2023-10-06T20:23:11.498Z,14.98
2023-10-06T20:25:38.239Z,15.38
2023-10-06T20:28:05.981Z,14.88
2023-10-06T20:30:32.574Z,17.05
2023-10-06T20:32:59.271Z,19.40
2023-10-06T20:35:30.953Z,19.00
2023-10-06T20:37:57.985Z,14.13
2023-10-06T20:40:32.042Z,17.83
2023-10-06T20:43:01.672Z,18.13
2023-10-06T20:45:32.482Z,21.10
2023-10-06T20:48:01.835Z,15.90
2023-10-06T20:50:29.254Z,18.08
2023-10-06T20:52:57.027Z,13.32
2023-10-06T20:55:25.257Z,15.30
2023-10-06T20:57:54.336Z,17.63
2023-10-06T21:00:24.605Z,16.17
2023-10-06T21:02:51.472Z,17.30
2023-10-06T21:05:18.344Z,13.90
2023-10-06T21:07:45.347Z,17.27
2023-10-06T21:10:13.481Z,15.82
2023-10-06T21:12:43.080Z,15.43
2023-10-06T21:15:11.736Z,21.52
2023-10-06T21:17:39.297Z,15.52
2023-10-06T21:20:10.432Z,16.05
2023-10-06T21:22:39.519Z,15.93
2023-10-06T21:25:09.951Z,16.25
2023-10-06T21:27:37.539Z,13.38
2023-10-06T21:30:05.414Z,17.10
2023-10-06T21:32:32.142Z,10.10
2023-10-06T21:34:59.878Z,14.10
2023-10-06T21:37:26.589Z,19.27
2023-10-06T21:39:53.490Z,15.98
2023-10-06T21:42:21.278Z,14.52
2023-10-06T21:44:49.300Z,14.10
2023-10-06T21:47:16.271Z,15.57
2023-10-06T21:49:43.366Z,13.23
2023-10-06T21:52:13.524Z,17.02
2023-10-06T21:54:42.316Z,15.30
2023-10-06T21:57:09.950Z,16.60
2023-10-06T21:59:37.946Z,14.20
2023-10-06T22:02:04.700Z,15.38
2023-10-06T22:04:31.440Z,14.50
2023-10-06T22:06:58.193Z,15.55
2023-10-06T22:09:24.769Z,12.70
2023-10-06T22:11:52.897Z,18.88
2023-10-06T22:14:22.744Z,20.90
2023-10-06T22:16:51.308Z,15.15
2023-10-06T22:19:18.134Z,15.82
2023-10-06T22:21:44.938Z,17.58
2023-10-06T22:24:14.836Z,13.68
2023-10-06T22:26:41.449Z,16.75
2023-10-06T22:29:08.085Z,13.50
2023-10-06T22:31:34.815Z,13.48
2023-10-06T22:34:01.489Z,17.02
2023-10-06T22:36:28.712Z,15.88
2023-10-06T22:38:55.477Z,18.05
2023-10-06T22:41:22.162Z,14.98
2023-10-06T22:43:49.025Z,15.52
2023-10-06T22:46:15.997Z,18.67
2023-10-06T22:48:45.360Z,17.25
2023-10-06T22:51:13.720Z,20.38
2023-10-06T22:53:40.392Z,19.60
2023-10-06T22:56:07.627Z,19.92
2023-10-06T22:58:34.504Z,14.25
2023-10-06T23:01:01.611Z,18.77
2023-10-06T23:03:30.630Z,15.75
2023-10-06T23:05:59.262Z,17.20
2023-10-06T23:08:26.316Z,15.02
2023-10-06T23:10:53.010Z,13.75
2023-10-06T23:13:19.719Z,16.70
2023-10-06T23:15:48.522Z,19.00
2023-10-06T23:18:18.191Z,16.90
2023-10-06T23:20:47.202Z,16.03
2023-10-06T23:23:13.825Z,16.40
2023-10-06T23:25:47.723Z,16.45
2023-10-06T23:28:15.024Z,15.13
2023-10-06T23:30:42.136Z,17.77
2023-10-06T23:33:12.055Z,16.17
2023-10-06T23:35:38.869Z,17.15
2023-10-06T23:38:12.568Z,17.92
2023-10-06T23:40:39.914Z,16.02
2023-10-06T23:43:09.920Z,17.73
2023-10-06T23:45:42.144Z,13.93
2023-10-06T23:48:12.350Z,15.82
2023-10-06T23:50:54.324Z,17.00
2023-10-06T23:53:28.845Z,17.23
2023-10-06T23:55:58.859Z,21.52
2023-10-06T23:58:25.605Z,15.10
